createdAt,value
2018-07-22T00:01:01.281Z,11.37
2018-07-22T00:03:30.417Z,11.13
2018-07-22T00:05:59.562Z,13.47
2018-07-22T00:08:28.665Z,12.63
2018-07-22T00:10:57.849Z,12.53
2018-07-22T00:13:26.966Z,12.80
2018-07-22T00:15:56.093Z,11.20
2018-07-22T00:18:25.201Z,12.03
2018-07-22T00:20:54.309Z,11.10
2018-07-22T00:23:23.450Z,12.33
2018-07-22T00:25:52.581Z,12.00
2018-07-22T00:28:21.686Z,13.43
2018-07-22T00:30:50.817Z,13.00
2018-07-22T00:33:19.909Z,13.93
2018-07-22T00:35:49.042Z,13.87
2018-07-22T00:38:18.138Z,12.03
2018-07-22T00:40:47.321Z,11.73
2018-07-22T00:43:16.423Z,12.67
2018-07-22T00:45:45.711Z,13.00
2018-07-22T00:48:14.802Z,13.07
2018-07-22T00:50:43.910Z,14.47
2018-07-22T00:53:13.005Z,13.20
2018-07-22T00:55:42.129Z,13.03
2018-07-22T00:58:11.241Z,13.17
2018-07-22T01:00:40.357Z,13.87
2018-07-22T01:03:09.477Z,12.53
2018-07-22T01:05:38.597Z,12.33
2018-07-22T01:08:07.687Z,10.43
2018-07-22T01:10:36.841Z,11.70
2018-07-22T01:13:06.313Z,10.90
2018-07-22T01:15:35.425Z,9.63
2018-07-22T01:18:04.550Z,9.73
2018-07-22T01:20:33.665Z,10.57
2018-07-22T01:23:02.792Z,9.67
2018-07-22T01:25:31.979Z,9.60
2018-07-22T01:28:01.074Z,9.50
2018-07-22T01:30:30.206Z,8.80
2018-07-22T01:32:59.297Z,9.73
2018-07-22T01:35:28.413Z,9.83
2018-07-22T01:37:57.521Z,9.60
2018-07-22T01:40:26.630Z,9.53
2018-07-22T01:42:55.721Z,9.03
2018-07-22T01:45:24.815Z,8.80
2018-07-22T01:47:53.921Z,9.60
2018-07-22T01:50:23.039Z,8.90
2018-07-22T01:52:52.849Z,7.90
2018-07-22T01:55:21.957Z,7.67
2018-07-22T01:57:51.081Z,8.00
2018-07-22T02:00:20.202Z,8.07
2018-07-22T02:02:49.319Z,7.73
2018-07-22T02:05:18.408Z,7.10
2018-07-22T02:07:47.509Z,7.63
2018-07-22T02:10:16.617Z,7.67
2018-07-22T02:12:45.726Z,7.37
2018-07-22T02:15:14.853Z,7.83
2018-07-22T02:17:43.945Z,7.87
2018-07-22T02:20:13.049Z,7.50
2018-07-22T02:22:42.145Z,8.00
2018-07-22T02:25:11.258Z,7.73
2018-07-22T02:27:40.421Z,7.53
2018-07-22T02:30:09.930Z,7.47
2018-07-22T02:32:39.051Z,7.43
2018-07-22T02:35:08.140Z,7.70
2018-07-22T02:37:37.326Z,7.57
2018-07-22T02:40:06.485Z,7.37
2018-07-22T02:42:35.589Z,7.47
2018-07-22T02:45:04.726Z,7.77
2018-07-22T02:47:33.821Z,8.00
2018-07-22T02:50:02.981Z,7.50
2018-07-22T02:52:32.092Z,7.97
2018-07-22T02:55:01.210Z,7.03
2018-07-22T02:57:30.310Z,7.77
2018-07-22T02:59:59.466Z,7.30
2018-07-22T03:02:28.602Z,8.33
2018-07-22T03:04:57.809Z,7.67
2018-07-22T03:07:26.909Z,7.33
2018-07-22T03:09:56.023Z,7.53
2018-07-22T03:12:25.137Z,7.20
2018-07-22T03:14:54.245Z,7.70
2018-07-22T03:17:23.342Z,8.20
2018-07-22T03:19:52.427Z,7.70
2018-07-22T03:22:21.550Z,7.37
2018-07-22T03:24:50.640Z,8.00
2018-07-22T03:27:19.738Z,8.07
2018-07-22T03:29:48.843Z,7.50
2018-07-22T03:32:17.941Z,8.57
2018-07-22T03:34:47.079Z,7.97
2018-07-22T03:37:16.177Z,8.00
2018-07-22T03:39:45.273Z,7.70
2018-07-22T03:42:14.381Z,7.40
2018-07-22T03:44:43.481Z,8.43
2018-07-22T03:47:12.604Z,7.93
2018-07-22T03:49:41.693Z,8.23
2018-07-22T03:52:10.814Z,8.17
2018-07-22T03:54:39.925Z,7.27
2018-07-22T03:57:09.025Z,8.07
2018-07-22T03:59:38.125Z,7.80
2018-07-22T04:02:07.229Z,7.93
2018-07-22T04:04:36.324Z,8.60
2018-07-22T04:07:05.538Z,8.27
2018-07-22T04:09:34.554Z,7.80
2018-07-22T04:12:03.677Z,8.10
2018-07-22T04:14:32.788Z,7.30
2018-07-22T04:17:02.081Z,7.50
2018-07-22T04:19:31.190Z,8.47
2018-07-22T04:22:00.306Z,7.40
2018-07-22T04:24:29.433Z,7.73
2018-07-22T04:26:58.590Z,8.13
2018-07-22T04:29:27.673Z,8.07
2018-07-22T04:31:56.777Z,7.83
2018-07-22T04:34:25.862Z,7.97
2018-07-22T04:36:54.969Z,7.90
2018-07-22T04:39:24.079Z,7.70
2018-07-22T04:41:53.250Z,8.10
2018-07-22T04:44:22.357Z,8.23
2018-07-22T04:46:51.865Z,7.87
2018-07-22T04:49:20.960Z,8.67
2018-07-22T04:51:50.089Z,9.03
2018-07-22T04:54:19.197Z,9.00
2018-07-22T04:56:48.314Z,8.87
2018-07-22T04:59:17.414Z,7.93
2018-07-22T05:01:46.553Z,8.77
2018-07-22T05:04:15.657Z,8.10
2018-07-22T05:06:44.765Z,8.13
2018-07-22T05:09:13.969Z,7.93
2018-07-22T05:11:43.070Z,7.90
2018-07-22T05:14:12.166Z,7.77
2018-07-22T05:16:41.281Z,8.03
2018-07-22T05:19:10.381Z,7.70
2018-07-22T05:21:39.493Z,8.43
2018-07-22T05:24:08.781Z,7.73
2018-07-22T05:26:38.159Z,8.50
2018-07-22T05:29:07.578Z,8.87
2018-07-22T05:31:36.701Z,8.77
2018-07-22T05:34:06.005Z,8.63
2018-07-22T05:36:35.179Z,8.53
2018-07-22T05:39:06.425Z,7.57
2018-07-22T05:41:35.551Z,7.77
2018-07-22T05:44:04.873Z,8.57
2018-07-22T05:46:34.029Z,8.20
2018-07-22T05:49:03.297Z,8.33
2018-07-22T05:51:32.626Z,7.73
2018-07-22T05:54:01.751Z,8.13
2018-07-22T05:56:30.874Z,9.33
2018-07-22T05:58:59.961Z,9.87
2018-07-22T06:01:29.105Z,8.93
2018-07-22T06:03:58.209Z,9.60
2018-07-22T06:06:27.329Z,8.90
2018-07-22T06:08:56.421Z,9.53
2018-07-22T06:11:25.544Z,9.83
2018-07-22T06:13:54.741Z,8.43
2018-07-22T06:16:23.845Z,8.60
2018-07-22T06:18:52.982Z,10.37
2018-07-22T06:21:22.077Z,10.07
2018-07-22T06:23:51.169Z,10.73
2018-07-22T06:26:20.293Z,9.60
2018-07-22T06:28:49.388Z,9.80
2018-07-22T06:31:18.569Z,10.53
2018-07-22T06:33:47.677Z,10.00
2018-07-22T06:36:16.781Z,9.47
2018-07-22T06:38:45.881Z,10.57
2018-07-22T06:41:15.093Z,10.37
2018-07-22T06:43:44.138Z,10.80
2018-07-22T06:46:13.430Z,10.63
2018-07-22T06:48:42.502Z,11.17
2018-07-22T06:51:11.689Z,10.17
2018-07-22T06:53:40.957Z,9.73
2018-07-22T06:56:10.026Z,10.13
2018-07-22T06:58:39.249Z,9.50
2018-07-22T07:01:08.361Z,10.27
2018-07-22T07:03:37.466Z,10.03
2018-07-22T07:06:06.601Z,10.10
2018-07-22T07:08:35.717Z,10.50
2018-07-22T07:11:04.928Z,10.93
2018-07-22T07:13:33.959Z,11.20
2018-07-22T07:16:03.089Z,11.60
2018-07-22T07:18:32.305Z,11.00
2018-07-22T07:21:01.442Z,10.60
2018-07-22T07:23:30.577Z,10.43
2018-07-22T07:25:59.685Z,11.03
2018-07-22T07:28:28.814Z,11.07
2018-07-22T07:30:57.930Z,11.37
2018-07-22T07:33:27.078Z,11.53
2018-07-22T07:35:56.817Z,11.20
2018-07-22T07:38:25.973Z,10.30
2018-07-22T07:40:55.105Z,10.77
2018-07-22T07:43:24.228Z,10.57
2018-07-22T07:45:53.393Z,10.83
2018-07-22T07:48:22.569Z,10.27
2018-07-22T07:50:51.693Z,11.40
2018-07-22T07:53:20.833Z,10.50
2018-07-22T07:55:49.928Z,10.70
2018-07-22T07:58:19.193Z,11.17
2018-07-22T08:00:48.297Z,10.17
2018-07-22T08:03:17.429Z,10.43
2018-07-22T08:05:46.589Z,10.77
2018-07-22T08:08:15.709Z,11.13
2018-07-22T08:10:44.853Z,10.73
2018-07-22T08:13:13.974Z,10.80
2018-07-22T08:15:43.089Z,9.97
2018-07-22T08:18:12.226Z,9.77
2018-07-22T08:20:41.398Z,10.17
2018-07-22T08:23:10.521Z,10.00
2018-07-22T08:25:39.774Z,10.50
2018-07-22T08:28:08.906Z,10.00
2018-07-22T08:30:38.125Z,10.33
2018-07-22T08:33:07.181Z,10.10
2018-07-22T08:35:36.303Z,9.47
2018-07-22T08:38:05.505Z,10.43
2018-07-22T08:40:34.726Z,9.50
2018-07-22T08:43:03.849Z,9.30
2018-07-22T08:45:32.973Z,10.23
2018-07-22T08:48:02.093Z,9.73
2018-07-22T08:50:31.222Z,8.97
2018-07-22T08:53:00.333Z,9.23
2018-07-22T08:55:29.481Z,8.10
2018-07-22T08:57:58.749Z,8.53
2018-07-22T09:00:27.915Z,7.63
2018-07-22T09:02:57.044Z,9.13
2018-07-22T09:05:26.148Z,8.90
2018-07-22T09:07:55.257Z,9.70
2018-07-22T09:10:24.497Z,8.50
2018-07-22T09:12:53.658Z,8.60
2018-07-22T09:15:22.775Z,8.27
2018-07-22T09:17:51.990Z,8.17
2018-07-22T09:20:21.038Z,7.73
2018-07-22T09:22:50.158Z,8.90
2018-07-22T09:25:19.314Z,8.33
2018-07-22T09:27:48.450Z,7.63
2018-07-22T09:30:17.579Z,9.43
2018-07-22T09:32:46.701Z,9.37
2018-07-22T09:35:15.805Z,8.60
2018-07-22T09:37:45.061Z,8.63
2018-07-22T09:40:14.264Z,9.40
2018-07-22T09:42:43.378Z,7.93
2018-07-22T09:45:12.660Z,8.33
2018-07-22T09:47:41.762Z,8.40
2018-07-22T09:50:10.937Z,9.17
2018-07-22T09:52:40.138Z,7.67
2018-07-22T09:55:09.282Z,7.37
2018-07-22T09:57:38.509Z,8.87
2018-07-22T10:00:07.778Z,7.97
2018-07-22T10:02:36.990Z,8.40
2018-07-22T10:05:06.230Z,8.70
2018-07-22T10:07:35.343Z,8.53
2018-07-22T10:10:06.537Z,9.17
2018-07-22T10:12:35.770Z,7.80
2018-07-22T10:15:05.362Z,8.63
2018-07-22T10:17:34.537Z,8.33
2018-07-22T10:20:03.629Z,7.17
2018-07-22T10:22:33.158Z,8.27
2018-07-22T10:25:02.398Z,8.40
2018-07-22T10:27:31.583Z,8.57
2018-07-22T10:30:00.715Z,7.73
2018-07-22T10:32:29.985Z,7.63
2018-07-22T10:34:59.176Z,8.70
2018-07-22T10:37:28.389Z,8.80
2018-07-22T10:39:57.585Z,8.00
2018-07-22T10:42:26.713Z,9.70
2018-07-22T10:44:55.854Z,8.63
2018-07-22T10:47:24.983Z,7.03
2018-07-22T10:49:54.133Z,9.00
2018-07-22T10:52:23.248Z,8.10
2018-07-22T10:54:52.397Z,7.70
2018-07-22T10:57:21.505Z,8.30
2018-07-22T10:59:50.633Z,7.20
2018-07-22T11:02:19.791Z,7.67
2018-07-22T11:04:48.937Z,7.43
2018-07-22T11:07:18.048Z,7.30
2018-07-22T11:09:47.443Z,8.43
2018-07-22T11:12:16.585Z,8.70
2018-07-22T11:14:45.804Z,6.83
2018-07-22T11:17:15.018Z,6.40
2018-07-22T11:19:44.235Z,7.17
2018-07-22T11:22:13.432Z,7.87
2018-07-22T11:24:42.545Z,8.87
2018-07-22T11:27:11.746Z,8.17
2018-07-22T11:29:40.872Z,7.33
2018-07-22T11:32:10.052Z,8.17
2018-07-22T11:34:39.153Z,8.37
2018-07-22T11:37:08.302Z,8.10
2018-07-22T11:39:37.426Z,8.17
2018-07-22T11:42:06.563Z,7.73
2018-07-22T11:44:35.669Z,7.30
2018-07-22T11:47:04.804Z,8.53
2018-07-22T11:49:33.949Z,8.23
2018-07-22T11:52:03.066Z,6.73
2018-07-22T11:54:32.193Z,7.60
2018-07-22T11:57:01.322Z,8.13
2018-07-22T11:59:30.473Z,6.90
2018-07-22T12:01:59.679Z,7.47
2018-07-22T12:04:28.794Z,8.40
2018-07-22T12:06:57.982Z,7.70
2018-07-22T12:09:27.091Z,7.33
2018-07-22T12:11:56.259Z,7.27
2018-07-22T12:14:25.401Z,7.27
2018-07-22T12:16:54.529Z,6.50
2018-07-22T12:19:23.660Z,8.33
2018-07-22T12:21:52.853Z,7.07
2018-07-22T12:24:21.981Z,6.37
2018-07-22T12:26:51.110Z,7.13
2018-07-22T12:29:20.246Z,8.20
2018-07-22T12:31:49.869Z,7.20
2018-07-22T12:34:19.058Z,7.33
2018-07-22T12:36:49.267Z,6.77
2018-07-22T12:39:18.437Z,6.60
2018-07-22T12:41:47.849Z,6.50
2018-07-22T12:44:16.945Z,6.90
2018-07-22T12:46:46.081Z,7.53
2018-07-22T12:49:15.213Z,6.70
2018-07-22T12:51:44.368Z,6.87
2018-07-22T12:54:14.797Z,6.67
2018-07-22T12:56:43.975Z,7.30
2018-07-22T12:59:13.282Z,7.10
2018-07-22T13:01:43.151Z,6.87
2018-07-22T13:04:12.273Z,5.70
2018-07-22T13:06:41.426Z,6.63
2018-07-22T13:09:11.033Z,6.17
2018-07-22T13:11:41.017Z,6.10
2018-07-22T13:14:10.138Z,6.90
2018-07-22T13:16:39.268Z,7.37
2018-07-22T13:19:08.382Z,6.47
2018-07-22T13:21:37.593Z,6.43
2018-07-22T13:24:06.737Z,7.00
2018-07-22T13:26:35.875Z,7.30
2018-07-22T13:29:04.977Z,6.80
2018-07-22T13:31:34.133Z,7.60
2018-07-22T13:34:03.266Z,6.87
2018-07-22T13:36:32.377Z,7.10
2018-07-22T13:39:02.780Z,7.00
2018-07-22T13:41:31.902Z,6.73
2018-07-22T13:44:01.112Z,7.33
2018-07-22T13:46:30.242Z,7.10
2018-07-22T13:48:59.345Z,7.30
2018-07-22T13:51:28.745Z,6.70
2018-07-22T13:53:57.841Z,6.40
2018-07-22T13:56:26.981Z,6.70
2018-07-22T13:58:56.093Z,7.13
2018-07-22T14:01:25.205Z,6.87
2018-07-22T14:03:54.298Z,6.80
2018-07-22T14:06:23.420Z,6.40
2018-07-22T14:08:53.574Z,6.90
2018-07-22T14:11:22.692Z,6.33
2018-07-22T14:13:51.801Z,6.70
2018-07-22T14:16:20.929Z,6.77
2018-07-22T14:18:50.177Z,6.23
2018-07-22T14:21:19.300Z,6.63
2018-07-22T14:23:49.034Z,7.47
2018-07-22T14:26:20.011Z,6.57
2018-07-22T14:28:49.498Z,7.03
2018-07-22T14:31:18.884Z,6.67
2018-07-22T14:33:48.074Z,6.97
2018-07-22T14:36:17.210Z,7.07
2018-07-22T14:38:46.606Z,7.17
2018-07-22T14:41:16.023Z,6.60
2018-07-22T14:43:45.112Z,6.53
2018-07-22T14:46:14.742Z,6.27
2018-07-22T14:48:43.869Z,6.60
2018-07-22T14:51:13.158Z,7.20
2018-07-22T14:53:42.319Z,7.40
2018-07-22T14:56:11.410Z,6.97
2018-07-22T14:58:40.918Z,6.67
2018-07-22T15:01:12.536Z,6.87
2018-07-22T15:03:43.177Z,7.07
2018-07-22T15:06:12.874Z,6.67
2018-07-22T15:08:42.469Z,6.83
2018-07-22T15:11:11.582Z,7.47
2018-07-22T15:13:40.775Z,6.90
2018-07-22T15:16:09.953Z,7.27
2018-07-22T15:18:39.177Z,7.20
2018-07-22T15:21:08.306Z,6.60
2018-07-22T15:23:37.425Z,6.93
2018-07-22T15:26:06.649Z,6.87
2018-07-22T15:28:35.751Z,6.70
2018-07-22T15:31:04.914Z,6.97
2018-07-22T15:33:34.033Z,6.67
2018-07-22T15:36:03.153Z,6.73
2018-07-22T15:38:32.295Z,6.67
2018-07-22T15:41:01.413Z,7.13
2018-07-22T15:43:30.534Z,7.13
2018-07-22T15:45:59.670Z,5.80
2018-07-22T15:48:28.777Z,6.13
2018-07-22T15:50:57.890Z,6.73
2018-07-22T15:53:27.110Z,6.63
2018-07-22T15:55:56.269Z,7.27
2018-07-22T15:58:25.621Z,6.60
2018-07-22T16:00:54.730Z,6.70
2018-07-22T16:03:23.850Z,6.70
2018-07-22T16:05:52.961Z,6.43
2018-07-22T16:08:22.081Z,6.00
2018-07-22T16:10:52.325Z,6.80
2018-07-22T16:13:21.425Z,6.40
2018-07-22T16:15:50.548Z,6.17
2018-07-22T16:18:20.162Z,6.10
2018-07-22T16:20:49.577Z,6.60
2018-07-22T16:23:18.979Z,6.50
2018-07-22T16:25:48.109Z,5.83
2018-07-22T16:28:17.277Z,6.10
2018-07-22T16:30:46.393Z,6.10
2018-07-22T16:33:15.545Z,6.40
2018-07-22T16:35:45.179Z,5.73
2018-07-22T16:38:14.319Z,6.03
2018-07-22T16:40:43.864Z,6.40
2018-07-22T16:43:13.193Z,6.60
2018-07-22T16:45:42.883Z,6.00
2018-07-22T16:48:12.033Z,6.17
2018-07-22T16:50:41.125Z,6.07
2018-07-22T16:53:10.533Z,6.20
2018-07-22T16:55:39.661Z,6.30
2018-07-22T16:58:08.773Z,6.50
2018-07-22T17:00:37.949Z,6.10
2018-07-22T17:03:07.099Z,6.50
2018-07-22T17:05:36.221Z,6.43
2018-07-22T17:08:05.370Z,6.33
2018-07-22T17:10:34.826Z,6.07
2018-07-22T17:13:04.053Z,5.90
2018-07-22T17:15:33.186Z,6.20
2018-07-22T17:18:02.306Z,6.17
2018-07-22T17:20:31.429Z,6.33
2018-07-22T17:23:00.513Z,6.20
2018-07-22T17:25:29.706Z,6.53
2018-07-22T17:27:58.825Z,6.17
2018-07-22T17:30:27.926Z,6.57
2018-07-22T17:32:57.041Z,5.87
2018-07-22T17:35:26.157Z,6.67
2018-07-22T17:37:55.392Z,6.60
2018-07-22T17:40:24.525Z,6.17
2018-07-22T17:42:53.647Z,6.37
2018-07-22T17:45:22.753Z,6.63
2018-07-22T17:47:51.854Z,6.73
2018-07-22T17:50:20.991Z,6.27
2018-07-22T17:52:50.109Z,6.13
2018-07-22T17:55:19.245Z,6.50
2018-07-22T17:57:48.462Z,6.70
2018-07-22T18:00:17.637Z,6.23
2018-07-22T18:02:52.668Z,6.53
2018-07-22T18:05:21.633Z,6.40
2018-07-22T18:07:50.737Z,6.23
2018-07-22T18:10:19.850Z,6.40
2018-07-22T18:12:48.959Z,6.13
2018-07-22T18:15:18.216Z,6.40
2018-07-22T18:17:47.647Z,6.30
2018-07-22T18:20:16.818Z,6.40
2018-07-22T18:22:46.193Z,6.73
2018-07-22T18:25:15.794Z,6.00
2018-07-22T18:27:45.203Z,6.53
2018-07-22T18:30:14.994Z,6.30
2018-07-22T18:32:44.125Z,6.23
2018-07-22T18:35:13.257Z,6.30
2018-07-22T18:37:42.411Z,6.33
2018-07-22T18:40:11.502Z,6.27
2018-07-22T18:42:40.749Z,6.33
2018-07-22T18:45:10.142Z,6.70
2018-07-22T18:47:39.709Z,6.67
2018-07-22T18:50:08.864Z,6.30
2018-07-22T18:52:37.953Z,6.87
2018-07-22T18:55:07.146Z,6.50
2018-07-22T18:57:36.369Z,6.63
2018-07-22T19:00:05.821Z,6.90
2018-07-22T19:02:34.945Z,6.57
2018-07-22T19:05:04.205Z,6.50
2018-07-22T19:07:33.257Z,6.60
2018-07-22T19:10:02.429Z,6.17
2018-07-22T19:12:31.559Z,6.63
2018-07-22T19:15:00.782Z,6.47
2018-07-22T19:17:29.916Z,6.37
2018-07-22T19:20:04.941Z,6.33
2018-07-22T19:22:45.000Z,6.13
2018-07-22T19:25:14.256Z,5.90
2018-07-22T19:27:43.426Z,6.57
2018-07-22T19:30:13.026Z,6.57
2018-07-22T19:32:42.169Z,6.50
2018-07-22T19:35:11.293Z,6.90
2018-07-22T19:37:40.416Z,6.77
2018-07-22T19:40:09.576Z,7.30
2018-07-22T19:42:38.776Z,6.93
2018-07-22T19:45:07.962Z,6.60
2018-07-22T19:47:37.101Z,6.13
2018-07-22T19:50:06.305Z,6.63
2018-07-22T19:52:35.437Z,6.30
2018-07-22T19:55:04.638Z,6.23
2018-07-22T19:57:33.789Z,6.47
2018-07-22T20:00:04.502Z,6.50
2018-07-22T20:02:33.733Z,6.40
2018-07-22T20:05:03.265Z,6.40
2018-07-22T20:07:32.391Z,7.00
2018-07-22T20:10:01.634Z,7.00
2018-07-22T20:12:30.797Z,6.80
2018-07-22T20:14:59.939Z,7.00
2018-07-22T20:17:29.146Z,7.80
2018-07-22T20:19:58.289Z,8.00
2018-07-22T20:22:27.401Z,9.43
2018-07-22T20:24:56.548Z,9.13
2018-07-22T20:27:25.635Z,9.93
2018-07-22T20:29:54.763Z,8.80
2018-07-22T20:32:23.918Z,9.87
2018-07-22T20:34:53.057Z,10.07
2018-07-22T20:37:22.383Z,9.60
2018-07-22T20:39:51.502Z,9.73
2018-07-22T20:42:20.640Z,9.27
2018-07-22T20:44:49.781Z,8.37
2018-07-22T20:47:19.202Z,9.20
2018-07-22T20:49:48.421Z,9.00
2018-07-22T20:52:28.646Z,8.37
2018-07-22T20:54:57.821Z,9.30
2018-07-22T20:57:26.974Z,9.27
2018-07-22T20:59:56.102Z,8.33
2018-07-22T21:02:25.225Z,8.63
2018-07-22T21:04:54.361Z,8.57
2018-07-22T21:07:23.471Z,8.93
2018-07-22T21:09:55.795Z,8.37
2018-07-22T21:12:48.578Z,8.23
2018-07-22T21:15:19.084Z,8.33
2018-07-22T21:17:49.115Z,8.30
2018-07-22T21:20:19.286Z,7.47
2018-07-22T21:22:48.433Z,7.67
2018-07-22T21:25:18.006Z,7.73
2018-07-22T21:27:47.249Z,7.90
2018-07-22T21:30:16.621Z,7.67
2018-07-22T21:32:45.808Z,7.70
2018-07-22T21:35:14.974Z,7.87
2018-07-22T21:37:44.121Z,7.80
2018-07-22T21:40:13.337Z,7.67
2018-07-22T21:42:42.457Z,7.53
2018-07-22T21:45:11.629Z,8.00
2018-07-22T21:47:40.748Z,8.33
2018-07-22T21:50:09.917Z,9.27
2018-07-22T21:52:39.045Z,8.63
2018-07-22T21:55:08.206Z,8.47
2018-07-22T21:57:37.569Z,7.70
2018-07-22T22:00:13.221Z,8.13
2018-07-22T22:02:42.412Z,8.77
2018-07-22T22:05:11.538Z,9.67
2018-07-22T22:07:40.667Z,8.63
2018-07-22T22:10:09.825Z,8.83
2018-07-22T22:12:38.965Z,8.67
2018-07-22T22:15:17.749Z,8.63
2018-07-22T22:17:48.418Z,8.70
2018-07-22T22:20:18.940Z,8.47
2018-07-22T22:22:48.281Z,9.10
2018-07-22T22:25:17.742Z,8.40
2018-07-22T22:27:46.938Z,8.20
2018-07-22T22:30:16.946Z,8.43
2018-07-22T22:32:46.613Z,8.07
2018-07-22T22:35:15.745Z,8.50
2018-07-22T22:37:45.620Z,8.60
2018-07-22T22:40:15.570Z,8.83
2018-07-22T22:42:45.649Z,8.33
2018-07-22T22:45:15.397Z,9.10
2018-07-22T22:47:48.667Z,8.63
2018-07-22T22:50:17.849Z,9.27
2018-07-22T22:52:47.049Z,9.17
2018-07-22T22:55:16.182Z,9.23
2018-07-22T22:57:56.690Z,9.03
2018-07-22T23:00:25.826Z,9.17
2018-07-22T23:02:54.945Z,8.83
2018-07-22T23:05:24.057Z,8.83
2018-07-22T23:07:53.190Z,9.03
2018-07-22T23:10:22.311Z,9.00
2018-07-22T23:12:51.468Z,8.80
2018-07-22T23:15:20.645Z,9.97
2018-07-22T23:17:49.789Z,9.40
2018-07-22T23:20:18.933Z,9.70
2018-07-22T23:22:48.045Z,9.67
2018-07-22T23:25:17.210Z,9.50
2018-07-22T23:27:46.321Z,9.43
2018-07-22T23:30:15.461Z,9.17
2018-07-22T23:32:44.614Z,10.00
2018-07-22T23:35:13.746Z,8.90
2018-07-22T23:37:42.856Z,9.27
2018-07-22T23:40:12.733Z,9.50
2018-07-22T23:42:41.862Z,10.10
2018-07-22T23:45:10.989Z,8.50
2018-07-22T23:47:40.126Z,8.90
2018-07-22T23:50:09.345Z,9.10
2018-07-22T23:52:38.485Z,10.00
2018-07-22T23:55:07.617Z,9.30
2018-07-22T23:57:37.129Z,10.80
